createdAt,value
2022-11-10T00:09:49.507Z,11.01
2022-11-10T00:19:53.451Z,11.10
2022-11-10T00:29:56.191Z,10.97
2022-11-10T00:40:00.291Z,10.81
2022-11-10T00:50:02.954Z,10.73
2022-11-10T01:00:08.547Z,10.81
2022-11-10T01:10:11.234Z,10.86
2022-11-10T01:20:16.785Z,10.84
2022-11-10T01:30:20.172Z,10.86
2022-11-10T01:40:24.590Z,10.82
2022-11-10T01:50:34.980Z,10.75
2022-11-10T02:00:38.988Z,10.72
2022-11-10T02:10:41.645Z,10.62
2022-11-10T02:20:47.010Z,10.56
2022-11-10T02:30:49.957Z,10.50
2022-11-10T02:40:53.875Z,10.44
2022-11-10T02:50:56.550Z,10.48
2022-11-10T03:01:00.679Z,10.42
2022-11-10T03:11:03.311Z,10.44
2022-11-10T03:21:07.361Z,10.36
2022-11-10T03:31:10.044Z,10.29
2022-11-10T03:41:21.203Z,10.26
2022-11-10T03:51:23.971Z,10.26
2022-11-10T04:01:27.966Z,10.26
2022-11-10T04:11:50.060Z,10.20
2022-11-10T04:21:54.413Z,10.15
2022-11-10T04:31:57.039Z,10.28
2022-11-10T04:42:02.674Z,10.28
2022-11-10T04:52:06.032Z,10.37
2022-11-10T05:02:10.023Z,10.30
2022-11-10T05:12:12.671Z,10.28
2022-11-10T05:22:16.762Z,10.23
2022-11-10T05:32:19.453Z,10.38
2022-11-10T05:42:23.378Z,10.38
2022-11-10T05:52:25.993Z,10.49
2022-11-10T06:02:29.943Z,10.60
2022-11-10T06:12:33.579Z,10.69
2022-11-10T06:22:37.555Z,10.78
2022-11-10T06:32:43.631Z,10.79
2022-11-10T06:42:47.612Z,10.80
2022-11-10T06:52:55.140Z,10.86
2022-11-10T07:03:03.356Z,10.81
2022-11-10T07:13:06.534Z,10.85
2022-11-10T07:23:10.567Z,10.85
2022-11-10T07:33:15.296Z,11.07
2022-11-10T07:43:19.591Z,11.28
2022-11-10T07:53:23.143Z,11.53
2022-11-10T08:03:27.630Z,11.74
2022-11-10T08:13:30.274Z,11.71
2022-11-10T08:23:34.307Z,11.82
2022-11-10T08:33:36.989Z,11.86
2022-11-10T08:43:40.989Z,12.12
2022-11-10T08:53:43.646Z,12.14
2022-11-10T09:03:47.574Z,12.15
2022-11-10T09:13:50.222Z,12.69
2022-11-10T09:23:54.147Z,13.17
2022-11-10T09:33:56.801Z,12.89
2022-11-10T09:44:04.879Z,12.81
2022-11-10T09:54:34.003Z,13.35
2022-11-10T10:04:59.607Z,13.93
2022-11-10T10:15:16.432Z,14.41
2022-11-10T10:25:23.695Z,14.19
2022-11-10T10:35:26.760Z,14.52
2022-11-10T10:45:31.060Z,14.73
2022-11-10T10:55:34.816Z,14.83
2022-11-10T11:05:38.819Z,16.22
2022-11-10T11:15:41.462Z,15.29
2022-11-10T11:25:46.968Z,15.85
2022-11-10T11:35:53.077Z,16.70
2022-11-10T11:46:06.227Z,18.77
2022-11-10T11:56:20.799Z,16.05
2022-11-10T12:06:41.584Z,16.89
2022-11-10T12:16:53.496Z,16.15
2022-11-10T12:27:00.674Z,15.82
2022-11-10T12:37:07.649Z,16.43
2022-11-10T12:47:16.351Z,15.84
2022-11-10T12:57:22.447Z,16.00
2022-11-10T13:07:26.763Z,15.57
2022-11-10T13:17:54.948Z,15.53
2022-11-10T13:27:58.918Z,15.38
2022-11-10T13:38:01.660Z,15.28
2022-11-10T13:48:20.052Z,15.47
2022-11-10T13:58:26.748Z,15.46
2022-11-10T14:08:40.604Z,15.30
2022-11-10T14:18:48.853Z,15.34
2022-11-10T14:28:52.831Z,15.26
2022-11-10T14:38:55.698Z,15.22
2022-11-10T14:49:01.350Z,15.07
2022-11-10T14:59:06.494Z,15.19
2022-11-10T15:09:23.349Z,15.09
2022-11-10T15:19:29.645Z,15.14
2022-11-10T15:29:34.766Z,15.26
2022-11-10T15:39:37.683Z,14.94
2022-11-10T15:49:42.369Z,14.89
2022-11-10T15:59:45.017Z,14.87
2022-11-10T16:09:49.202Z,14.91
2022-11-10T16:19:51.854Z,14.80
2022-11-10T16:29:56.071Z,14.79
2022-11-10T16:39:58.698Z,14.70
2022-11-10T16:50:02.938Z,14.63
2022-11-10T17:00:06.306Z,14.70
2022-11-10T17:10:16.551Z,14.47
2022-11-10T17:20:23.086Z,14.59
2022-11-10T17:30:28.216Z,14.78
2022-11-10T17:40:31.232Z,14.66
2022-11-10T17:50:36.379Z,14.71
2022-11-10T18:00:39.075Z,14.62
2022-11-10T18:10:44.515Z,14.62
2022-11-10T18:20:47.190Z,14.80
2022-11-10T18:30:51.280Z,14.75
2022-11-10T18:40:53.913Z,14.69
2022-11-10T18:50:57.923Z,14.70
2022-11-10T19:01:04.837Z,14.69
2022-11-10T19:11:11.077Z,14.47
2022-11-10T19:21:15.315Z,14.45
2022-11-10T19:31:22.386Z,14.37
2022-11-10T19:41:27.175Z,14.42
2022-11-10T19:51:31.267Z,14.19
2022-11-10T20:01:33.990Z,14.11
2022-11-10T20:11:38.093Z,13.92
2022-11-10T20:21:40.772Z,13.66
2022-11-10T20:31:44.823Z,13.45
2022-11-10T20:41:47.843Z,13.52
2022-11-10T20:51:51.990Z,13.68
2022-11-10T21:01:54.802Z,13.63
2022-11-10T21:12:16.542Z,13.70
2022-11-10T21:22:19.195Z,13.71
2022-11-10T21:32:23.174Z,13.70
2022-11-10T21:42:25.809Z,13.63
2022-11-10T21:52:33.376Z,13.63
2022-11-10T22:02:36.045Z,13.55
2022-11-10T22:12:57.389Z,13.31
2022-11-10T22:23:00.003Z,13.37
2022-11-10T22:33:24.277Z,13.01
2022-11-10T22:43:44.996Z,13.07
2022-11-10T22:53:49.070Z,12.82
2022-11-10T23:03:52.033Z,12.97
2022-11-10T23:13:56.715Z,12.85
2022-11-10T23:23:59.522Z,12.92
2022-11-10T23:34:03.543Z,13.18
2022-11-10T23:44:06.186Z,13.01
2022-11-10T23:54:10.386Z,12.80
